Time;durP1;ratioP1;P1;durP2;ratioP2;P2;SDS_P1;SDS_P2;PMS_P1;PMS_P2;Temp;Humidity;BMP_temperature;BMP_pressure;BME280_temperature;BME280_humidity;BME280_pressure;Samples;Min_cycle;Max_cycle;Signal;HPM_P1;HPM_P2
2023/03/06 00:01:31;;;;;;;;;20.00;15.00;;;;;3.69;75.00;99080.63;5097314;28;8839;-61
2023/03/06 00:03:58;;;;;;;;;18.20;17.80;;;;;3.69;75.00;99077.16;5098608;28;8836;-61
2023/03/06 00:06:26;;;;;;;;;6.80;6.00;;;;;3.68;74.88;99071.03;5098378;28;8823;-60
2023/03/06 00:08:54;;;;;;;;;30.00;27.60;;;;;3.67;75.17;99068.50;5098903;28;9489;-61
2023/03/06 00:11:23;;;;;;;;;15.20;14.20;;;;;3.66;75.56;99062.41;5098318;28;8820;-61
2023/03/06 00:13:52;;;;;;;;;21.60;21.60;;;;;3.64;75.06;99059.00;5098725;28;8900;-59
2023/03/06 00:16:19;;;;;;;;;22.80;19.80;;;;;3.65;75.16;99058.09;5098488;28;8820;-61
2023/03/06 00:18:47;;;;;;;;;18.00;12.20;;;;;3.65;75.63;99057.25;5098759;28;8828;-61
2023/03/06 00:21:15;;;;;;;;;22.40;19.60;;;;;3.65;75.17;99058.09;5099048;28;8838;-61
2023/03/06 00:23:43;;;;;;;;;25.20;22.80;;;;;3.66;75.60;99056.28;5098860;28;8812;-61
2023/03/06 00:26:10;;;;;;;;;19.40;16.40;;;;;3.66;75.58;99056.28;5098763;28;8839;-60
2023/03/06 00:28:38;;;;;;;;;27.20;23.40;;;;;3.65;75.53;99050.19;5098457;28;8860;-62
2023/03/06 00:31:06;;;;;;;;;14.60;14.20;;;;;3.63;75.13;99049.44;5098458;28;8824;-60
2023/03/06 00:33:34;;;;;;;;;15.20;11.40;;;;;3.61;75.36;99045.22;5098491;28;9358;-61
2023/03/06 00:36:02;;;;;;;;;15.80;14.80;;;;;3.59;75.50;99049.75;5098480;28;8839;-61
2023/03/06 00:38:32;;;;;;;;;15.60;12.20;;;;;3.57;75.74;99041.94;5098146;28;8827;-62
2023/03/06 00:40:59;;;;;;;;;15.00;13.00;;;;;3.53;75.53;99035.19;5098226;28;8820;-61
2023/03/06 00:43:27;;;;;;;;;15.00;12.00;;;;;3.52;76.01;99033.53;5098256;28;8844;-61
2023/03/06 00:45:55;;;;;;;;;14.80;12.60;;;;;3.49;75.64;99025.81;5098205;28;8871;-61
2023/03/06 00:48:23;;;;;;;;;17.80;16.20;;;;;3.44;76.02;99025.28;5097957;28;8824;-61
2023/03/06 00:50:51;;;;;;;;;17.20;16.60;;;;;3.40;75.89;99028.22;5098227;28;9524;-59
2023/03/06 00:53:18;;;;;;;;;7.80;7.40;;;;;3.35;76.19;99015.38;5098104;28;8824;-61
2023/03/06 00:55:46;;;;;;;;;13.00;11.60;;;;;3.32;76.08;99014.72;5098254;28;8856;-60
2023/03/06 00:58:14;;;;;;;;;12.20;10.80;;;;;3.28;76.50;99008.81;5097726;28;8877;-61
2023/03/06 01:00:42;;;;;;;;;12.20;11.60;;;;;3.26;76.47;99010.69;5097822;28;8826;-61
2023/03/06 01:03:10;;;;;;;;;9.60;9.40;;;;;3.23;76.53;99010.03;5097301;28;8818;-59
2023/03/06 01:05:37;;;;;;;;;8.80;6.80;;;;;3.20;76.85;99013.75;5097274;28;8814;-61
2023/03/06 01:08:05;;;;;;;;;13.00;12.20;;;;;3.18;76.20;99005.09;5097139;28;8833;-61
2023/03/06 01:10:33;;;;;;;;;14.20;10.80;;;;;3.18;76.06;99006.88;5097391;28;8853;-59
2023/03/06 01:13:01;;;;;;;;;13.80;12.80;;;;;3.18;76.96;99007.72;5096485;28;8825;-61
2023/03/06 01:15:28;;;;;;;;;6.60;3.60;;;;;3.20;76.27;98999.72;5097872;28;8822;-61
2023/03/06 01:17:56;;;;;;;;;15.00;12.20;;;;;3.22;76.83;99001.31;5097106;28;8826;-62
2023/03/06 01:20:24;;;;;;;;;4.40;4.40;;;;;3.24;76.53;98995.97;5097621;28;8821;-61
2023/03/06 01:22:53;;;;;;;;;8.60;8.20;;;;;3.26;76.55;99000.16;5098057;28;9533;-59
2023/03/06 01:25:21;;;;;;;;;13.80;9.60;;;;;3.27;76.23;99001.84;5097582;28;8881;-59
2023/03/06 01:27:48;;;;;;;;;14.20;12.40;;;;;3.29;76.40;98993.88;5097877;28;8849;-58
2023/03/06 01:30:16;;;;;;;;;18.40;16.00;;;;;3.30;76.69;98982.41;5097790;28;8868;-60
2023/03/06 01:32:43;;;;;;;;;12.00;10.40;;;;;3.31;76.44;98979.69;5097073;28;8857;-59
2023/03/06 01:35:11;;;;;;;;;14.20;12.60;;;;;3.32;76.34;98978.72;5097177;28;8844;-59
2023/03/06 01:37:39;;;;;;;;;13.20;12.80;;;;;3.33;76.51;98969.88;5097104;28;8818;-60
2023/03/06 01:40:07;;;;;;;;;10.20;9.40;;;;;3.32;76.05;98965.56;5096544;28;8853;-60
2023/03/06 01:42:35;;;;;;;;;8.60;7.00;;;;;3.33;76.97;98977.78;5096829;28;8810;-58
2023/03/06 01:45:02;;;;;;;;;12.00;10.00;;;;;3.33;76.54;98969.88;5097667;28;9554;-61
2023/03/06 01:47:30;;;;;;;;;3.00;1.00;;;;;3.35;76.23;98962.75;5097159;28;9512;-59
2023/03/06 01:49:58;;;;;;;;;17.60;12.60;;;;;3.36;76.20;98964.44;5096920;28;8830;-59
2023/03/06 01:52:25;;;;;;;;;5.00;5.00;;;;;3.37;76.35;98960.88;5096861;28;8842;-61
2023/03/06 01:54:53;;;;;;;;;9.80;9.20;;;;;3.39;75.74;98968.66;5096440;28;8906;-61
2023/03/06 01:57:21;;;;;;;;;15.60;12.40;;;;;3.41;76.04;98964.13;5096194;28;8798;-60
2023/03/06 01:59:51;;;;;;;;;9.40;9.00;;;;;3.40;76.33;98963.28;5095769;28;8831;-59
2023/03/06 02:02:20;;;;;;;;;7.40;7.00;;;;;3.41;75.68;98954.44;5096333;28;9560;-61
2023/03/06 02:04:48;;;;;;;;;12.60;11.20;;;;;3.43;76.51;98959.59;5096483;28;8953;-60
2023/03/06 02:07:15;;;;;;;;;10.80;10.80;;;;;3.42;76.35;98947.41;5096242;28;8811;-61
2023/03/06 02:09:43;;;;;;;;;12.60;12.60;;;;;3.43;76.30;98949.94;5096992;28;8802;-61
2023/03/06 02:12:11;;;;;;;;;10.20;9.60;;;;;3.46;76.42;98943.59;5096242;28;8829;-59
2023/03/06 02:14:38;;;;;;;;;13.00;11.60;;;;;3.47;76.42;98945.31;5096121;28;8826;-59
2023/03/06 02:17:06;;;;;;;;;8.40;8.00;;;;;3.48;76.01;98942.56;5096048;28;8810;-61
2023/03/06 02:19:34;;;;;;;;;9.60;8.20;;;;;3.50;76.52;98945.94;5096067;28;8826;-61
2023/03/06 02:22:01;;;;;;;;;14.20;13.80;;;;;3.51;76.48;98938.88;5096337;28;8868;-61
2023/03/06 02:24:31;;;;;;;;;16.00;13.40;;;;;3.52;76.05;98938.78;5095815;28;8802;-60
2023/03/06 02:26:58;;;;;;;;;16.40;13.40;;;;;3.52;76.56;98932.66;5096086;28;8841;-61
2023/03/06 02:29:26;;;;;;;;;12.40;10.40;;;;;3.53;76.09;98929.94;5096084;28;9532;-60
2023/03/06 02:31:53;;;;;;;;;9.40;7.80;;;;;3.54;75.78;98931.63;5096158;28;8859;-61
2023/03/06 02:34:21;;;;;;;;;9.00;8.60;;;;;3.55;75.96;98925.41;5096158;28;8813;-61
2023/03/06 02:36:49;;;;;;;;;11.60;9.20;;;;;3.54;76.30;98923.72;5096199;28;9490;-62
2023/03/06 02:39:17;;;;;;;;;13.00;12.20;;;;;3.55;75.72;98921.97;5096258;28;8946;-60
2023/03/06 02:41:44;;;;;;;;;10.40;10.20;;;;;3.54;76.48;98922.91;5096347;28;8834;-58
2023/03/06 02:44:12;;;;;;;;;11.20;8.80;;;;;3.53;75.97;98914.16;5096397;28;8837;-61
2023/03/06 02:46:41;;;;;;;;;14.80;12.20;;;;;3.52;76.71;98912.47;5096006;28;8814;-61
2023/03/06 02:49:09;;;;;;;;;15.60;12.00;;;;;3.51;76.58;98902.03;5095527;28;8825;-61
2023/03/06 02:51:36;;;;;;;;;9.40;8.60;;;;;3.50;76.45;98911.75;5096211;28;9472;-61
2023/03/06 02:54:04;;;;;;;;;8.60;5.60;;;;;3.50;76.23;98906.47;5095250;28;8822;-61
2023/03/06 02:56:31;;;;;;;;;9.00;7.80;;;;;3.48;76.35;98900.47;5095176;28;8825;-60
2023/03/06 02:58:59;;;;;;;;;7.80;7.40;;;;;3.48;76.42;98894.38;5093760;28;8877;-61
2023/03/06 03:01:27;;;;;;;;;10.00;9.00;;;;;3.47;75.89;98898.78;5090371;28;8867;-61
2023/03/06 03:03:55;;;;;;;;;7.00;6.40;;;;;3.46;76.84;98896.25;5075358;28;8832;-61
2023/03/06 03:06:22;;;;;;;;;9.20;7.80;;;;;3.46;76.04;98890.97;5074899;28;8816;-61
2023/03/06 03:08:50;;;;;;;;;9.60;6.80;;;;;3.44;76.29;98891.09;5074282;28;8809;-61
2023/03/06 03:11:18;;;;;;;;;12.00;9.80;;;;;3.42;76.54;98885.09;5086229;28;8830;-61
2023/03/06 03:13:46;;;;;;;;;7.00;7.00;;;;;3.41;76.70;98883.41;5078385;28;8831;-61
2023/03/06 03:16:14;;;;;;;;;13.00;10.80;;;;;3.40;76.46;98886.97;5075590;28;8809;-61
2023/03/06 03:18:43;;;;;;;;;8.60;7.00;;;;;3.38;76.83;98883.63;5078331;28;8816;-61
2023/03/06 03:21:10;;;;;;;;;5.60;5.60;;;;;3.37;76.84;98887.22;5084129;28;8958;-61
2023/03/06 03:23:38;;;;;;;;;9.00;7.40;;;;;3.36;76.65;98885.53;5075595;28;8828;-61
2023/03/06 03:26:06;;;;;;;;;17.80;12.40;;;;;3.34;76.70;98882.13;5075227;28;8819;-61
2023/03/06 03:28:34;;;;;;;;;7.80;7.00;;;;;3.34;76.57;98876.88;5075629;28;8858;-59
2023/03/06 03:31:02;;;;;;;;;12.40;10.00;;;;;3.33;76.98;98885.72;5075868;28;8832;-61
2023/03/06 03:33:29;;;;;;;;;7.00;6.00;;;;;3.33;76.63;98871.72;5075609;28;8851;-61
2023/03/06 03:35:57;;;;;;;;;17.20;12.40;;;;;3.32;76.79;98873.50;5076633;28;8885;-61
2023/03/06 03:38:25;;;;;;;;;6.40;5.60;;;;;3.33;76.69;98869.94;5079301;28;8821;-61
2023/03/06 03:40:52;;;;;;;;;8.00;8.00;;;;;3.33;77.00;98874.38;5079020;28;8832;-61
2023/03/06 03:43:20;;;;;;;;;6.20;4.80;;;;;3.31;76.56;98866.56;5079763;28;9595;-60
2023/03/06 03:45:48;;;;;;;;;9.00;6.20;;;;;3.30;77.12;98867.53;5079314;28;8946;-61
2023/03/06 03:48:15;;;;;;;;;8.60;7.00;;;;;3.29;76.50;98867.63;5078932;28;8879;-59
2023/03/06 03:50:43;;;;;;;;;7.80;7.60;;;;;3.27;76.96;98864.25;5079282;28;8839;-60
2023/03/06 03:53:12;;;;;;;;;5.20;5.20;;;;;3.25;76.74;98856.44;5089747;28;8833;-61
2023/03/06 03:55:40;;;;;;;;;8.20;7.00;;;;;3.25;76.69;98858.25;5098613;28;8865;-59
2023/03/06 03:58:07;;;;;;;;;8.20;6.40;;;;;3.25;76.71;98859.09;5087401;28;8872;-59
2023/03/06 04:00:35;;;;;;;;;7.40;7.00;;;;;3.24;77.24;98844.25;5098908;28;9483;-61
2023/03/06 04:03:02;;;;;;;;;14.80;13.60;;;;;3.22;76.62;98851.41;5099091;28;8852;-61
2023/03/06 04:05:32;;;;;;;;;12.40;10.80;;;;;3.21;76.97;98855.00;5099183;28;8833;-61
2023/03/06 04:08:01;;;;;;;;;10.60;9.80;;;;;3.19;77.26;98846.34;5098373;28;8848;-60
2023/03/06 04:10:29;;;;;;;;;8.20;8.20;;;;;3.19;77.35;98851.59;5098717;28;8821;-60
2023/03/06 04:12:57;;;;;;;;;10.80;10.80;;;;;3.19;76.65;98845.53;5098436;28;8817;-61
2023/03/06 04:15:25;;;;;;;;;10.80;9.60;;;;;3.18;77.35;98844.66;5098993;28;8911;-61
2023/03/06 04:17:53;;;;;;;;;13.00;12.00;;;;;3.17;77.14;98842.97;5098312;28;8819;-61
2023/03/06 04:20:20;;;;;;;;;12.00;6.60;;;;;3.17;77.36;98845.63;5099088;28;9543;-61
2023/03/06 04:22:48;;;;;;;;;7.00;6.60;;;;;3.14;76.92;98835.31;5097888;28;8832;-61
2023/03/06 04:25:15;;;;;;;;;20.40;15.00;;;;;3.12;77.48;98833.72;5098832;28;8817;-61
2023/03/06 04:27:43;;;;;;;;;12.40;12.00;;;;;3.11;77.51;98838.13;5098598;28;8856;-61
2023/03/06 04:30:11;;;;;;;;;13.20;12.40;;;;;3.11;77.33;98838.13;5098222;28;8818;-61
2023/03/06 04:32:39;;;;;;;;;14.40;12.20;;;;;3.12;77.02;98833.72;5098493;28;8832;-61
2023/03/06 04:35:06;;;;;;;;;8.80;7.40;;;;;3.14;77.34;98826.56;5097817;28;8825;-58
2023/03/06 04:37:34;;;;;;;;;16.40;14.00;;;;;3.14;77.55;98822.16;5097314;28;8821;-61
2023/03/06 04:40:02;;;;;;;;;16.00;15.60;;;;;3.16;77.30;98822.91;5098413;28;8822;-61
2023/03/06 04:42:30;;;;;;;;;10.80;9.40;;;;;3.18;77.34;98815.72;5097804;28;8833;-59
2023/03/06 04:44:59;;;;;;;;;10.00;9.40;;;;;3.20;77.58;98819.13;5098114;28;8825;-59
2023/03/06 04:47:26;;;;;;;;;12.40;12.40;;;;;3.22;77.75;98809.34;5096408;28;8824;-59
2023/03/06 04:49:54;;;;;;;;;16.80;14.60;;;;;3.23;77.32;98811.00;5096777;28;8845;-58
2023/03/06 04:52:22;;;;;;;;;12.00;9.80;;;;;3.23;76.90;98800.50;5095943;28;8834;-58
2023/03/06 04:54:50;;;;;;;;;13.60;12.20;;;;;3.23;77.03;98813.66;5096485;28;8833;-59
2023/03/06 04:57:17;;;;;;;;;15.80;14.00;;;;;3.23;77.27;98804.91;5096601;28;8831;-60
2023/03/06 04:59:45;;;;;;;;;11.20;11.20;;;;;3.24;77.38;98798.72;5096919;28;9534;-61
2023/03/06 05:02:13;;;;;;;;;14.60;13.20;;;;;3.24;77.30;98796.91;5096427;28;8845;-61
2023/03/06 05:04:40;;;;;;;;;14.20;12.20;;;;;3.25;76.81;98797.78;5095657;28;8822;-59
2023/03/06 05:07:08;;;;;;;;;11.20;10.20;;;;;3.25;77.01;98795.97;5096736;28;8817;-58
2023/03/06 05:09:35;;;;;;;;;5.60;3.60;;;;;3.25;77.13;98803.03;5096398;28;8821;-60
2023/03/06 05:12:05;;;;;;;;;9.40;9.40;;;;;3.25;76.89;98798.59;5096398;28;8898;-59
2023/03/06 05:14:33;;;;;;;;;8.60;7.60;;;;;3.24;77.44;98798.72;5096427;28;8822;-59
2023/03/06 05:17:01;;;;;;;;;10.20;9.80;;;;;3.23;77.29;98797.00;5096648;28;8809;-58
2023/03/06 05:19:28;;;;;;;;;12.20;11.60;;;;;3.23;76.66;98797.00;5096594;28;8894;-59
2023/03/06 05:21:56;;;;;;;;;9.80;8.60;;;;;3.22;76.85;98798.81;5096852;28;8830;-61
2023/03/06 05:24:24;;;;;;;;;14.20;11.20;;;;;3.20;77.12;98798.09;5096845;28;8814;-59
2023/03/06 05:26:51;;;;;;;;;13.00;12.40;;;;;3.19;77.25;98796.38;5097247;28;8930;-61
2023/03/06 05:29:20;;;;;;;;;12.40;10.80;;;;;3.18;76.89;98802.59;5096830;28;8877;-59
2023/03/06 05:31:47;;;;;;;;;7.60;6.60;;;;;3.16;76.67;98793.97;5096855;28;8810;-60
2023/03/06 05:34:15;;;;;;;;;13.40;10.80;;;;;3.17;77.00;98800.91;5096844;28;8826;-60
2023/03/06 05:36:43;;;;;;;;;9.80;8.80;;;;;3.18;77.75;98797.31;5097091;28;8814;-60
2023/03/06 05:39:10;;;;;;;;;10.40;10.40;;;;;3.17;77.36;98793.00;5096877;28;8839;-59
2023/03/06 05:41:38;;;;;;;;;10.00;9.00;;;;;3.18;76.64;98799.13;5096545;28;8826;-59
2023/03/06 05:44:07;;;;;;;;;5.20;5.20;;;;;3.16;77.28;98793.97;5097379;28;8833;-59
2023/03/06 05:46:35;;;;;;;;;12.80;12.20;;;;;3.15;77.42;98792.28;5096427;28;8818;-59
2023/03/06 05:49:02;;;;;;;;;7.00;6.80;;;;;3.14;77.40;98790.59;5095782;28;8850;-59
2023/03/06 05:51:30;;;;;;;;;10.80;9.80;;;;;3.13;76.84;98782.81;5096021;28;8833;-60
2023/03/06 05:53:58;;;;;;;;;12.40;10.00;;;;;3.13;77.46;98788.06;5095583;28;8817;-59
2023/03/06 05:56:25;;;;;;;;;11.20;9.80;;;;;3.13;76.98;98788.94;5090596;28;8862;-61
2023/03/06 05:58:53;;;;;;;;;12.80;10.40;;;;;3.14;76.88;98795.00;5095851;28;8826;-61
2023/03/06 06:01:21;;;;;;;;;9.60;9.00;;;;;3.12;77.28;98795.13;5095853;28;8818;-59
2023/03/06 06:03:48;;;;;;;;;8.60;6.40;;;;;3.12;77.01;98802.16;5096242;28;8814;-61
2023/03/06 06:06:17;;;;;;;;;10.60;9.40;;;;;3.10;76.96;98793.56;5096067;28;8830;-60
2023/03/06 06:08:45;;;;;;;;;10.80;10.00;;;;;3.09;77.02;98799.75;5095883;28;8818;-60
2023/03/06 06:11:12;;;;;;;;;12.40;12.00;;;;;3.08;77.04;98796.28;5095382;28;8813;-61
2023/03/06 06:13:40;;;;;;;;;9.40;8.20;;;;;3.07;77.21;98791.13;5095560;28;8968;-61
2023/03/06 06:16:08;;;;;;;;;11.80;9.40;;;;;3.03;77.46;98793.09;5094591;28;8829;-59
2023/03/06 06:18:36;;;;;;;;;9.20;7.60;;;;;2.98;77.50;98784.72;5094083;28;8876;-59
2023/03/06 06:21:07;;;;;;;;;11.20;11.20;;;;;2.93;77.55;98781.53;5093701;28;8944;-59
2023/03/06 06:23:35;;;;;;;;;9.00;6.20;;;;;2.88;77.53;98794.13;5094740;28;8818;-58
2023/03/06 06:26:02;;;;;;;;;6.20;4.00;;;;;2.85;77.62;98794.34;5094004;28;8852;-59
2023/03/06 06:28:30;;;;;;;;;1.00;1.00;;;;;2.83;77.78;98798.88;5094023;28;8996;-59
2023/03/06 06:30:58;;;;;;;;;10.00;9.40;;;;;2.83;77.75;98792.78;5093486;28;8810;-59
2023/03/06 06:33:25;;;;;;;;;8.60;7.60;;;;;2.82;77.36;98799.84;5093194;28;8845;-58
2023/03/06 06:35:53;;;;;;;;;7.00;6.20;;;;;2.82;77.19;98789.31;5092955;28;8826;-60
2023/03/06 06:38:21;;;;;;;;;9.80;9.80;;;;;2.83;77.19;98788.38;5093297;28;8837;-59
2023/03/06 06:40:49;;;;;;;;;12.00;10.40;;;;;2.85;77.32;98781.22;5092218;28;8857;-60
2023/03/06 06:43:37;;;;;;;;;12.60;10.80;;;;;2.87;77.53;98778.50;5092874;28;8915;-58
2023/03/06 06:46:05;;;;;;;;;10.80;9.80;;;;;2.88;77.26;98783.63;5092158;28;9515;-58
2023/03/06 06:48:54;;;;;;;;;10.40;9.60;;;;;2.90;76.79;98776.50;5091281;28;8826;-58
2023/03/06 06:51:22;;;;;;;;;12.40;9.60;;;;;2.92;77.46;98779.84;5092217;28;8848;-59
2023/03/06 06:53:50;;;;;;;;;12.00;10.00;;;;;2.95;76.94;98784.06;5092576;28;9508;-58
2023/03/06 06:56:17;;;;;;;;;15.20;13.00;;;;;2.99;76.94;98781.13;5092701;28;8834;-59
2023/03/06 06:58:45;;;;;;;;;12.60;10.80;;;;;3.04;77.28;98778.19;5092287;28;9756;-59
2023/03/06 07:01:13;;;;;;;;;10.00;10.00;;;;;3.07;76.91;98784.09;5092559;28;8865;-58
2023/03/06 07:03:40;;;;;;;;;7.00;6.20;;;;;3.11;76.63;98785.53;5092249;28;8930;-59
2023/03/06 07:06:08;;;;;;;;;13.80;11.40;;;;;3.14;76.75;98777.47;5092028;28;9514;-59
2023/03/06 07:08:36;;;;;;;;;11.80;9.80;;;;;3.18;76.72;98780.72;5091454;28;8856;-58
2023/03/06 07:11:04;;;;;;;;;8.60;6.20;;;;;3.20;77.24;98781.44;5090512;28;8871;-60
2023/03/06 07:13:32;;;;;;;;;15.00;13.40;;;;;3.23;76.70;98774.19;5091247;28;8829;-59
2023/03/06 07:15:59;;;;;;;;;15.40;13.80;;;;;3.24;76.50;98775.88;5090558;28;8837;-58
2023/03/06 07:18:28;;;;;;;;;12.20;10.40;;;;;3.28;76.85;98777.34;5089473;28;8838;-61
2023/03/06 07:20:56;;;;;;;;;6.80;6.40;;;;;3.32;77.07;98784.06;5089793;28;8838;-60
2023/03/06 07:23:25;;;;;;;;;5.20;3.80;;;;;3.34;75.99;98776.09;5091029;28;8825;-58
2023/03/06 07:25:52;;;;;;;;;5.80;3.00;;;;;3.37;76.64;98768.81;5092289;28;8841;-60
2023/03/06 07:28:20;;;;;;;;;9.60;9.20;;;;;3.39;76.39;98774.81;5091839;28;8899;-59
2023/03/06 07:30:49;;;;;;;;;11.20;10.00;;;;;3.44;75.90;98777.97;5090302;28;8838;-60
2023/03/06 07:33:17;;;;;;;;;12.80;9.80;;;;;3.47;76.22;98782.19;5089787;28;8858;-61
2023/03/06 07:35:45;;;;;;;;;10.00;9.20;;;;;3.51;76.02;98786.28;5091142;28;8849;-58
2023/03/06 07:38:13;;;;;;;;;14.00;12.40;;;;;3.53;76.10;98777.31;5092132;28;8833;-60
2023/03/06 07:40:41;;;;;;;;;6.60;5.60;;;;;3.54;75.64;98781.63;5091783;28;8848;-59
2023/03/06 07:43:09;;;;;;;;;10.40;10.40;;;;;3.55;76.19;98778.06;5092272;28;8863;-63
2023/03/06 07:45:46;;;;;;;;;11.40;10.40;;;;;3.57;76.26;98784.03;5091275;28;8995;-59
2023/03/06 07:48:14;;;;;;;;;7.80;6.80;;;;;3.61;75.80;98784.66;5093205;28;8849;-58
2023/03/06 07:50:42;;;;;;;;;7.60;6.40;;;;;3.65;76.15;98788.78;5092428;28;8833;-59
2023/03/06 07:53:10;;;;;;;;;9.80;9.00;;;;;3.67;76.25;98787.72;5093052;28;8922;-59
2023/03/06 07:55:40;;;;;;;;;8.80;8.40;;;;;3.69;75.16;98788.47;5092889;28;8851;-60
2023/03/06 07:58:08;;;;;;;;;2.60;1.00;;;;;3.70;75.96;98789.31;5093093;28;8927;-59
2023/03/06 08:00:36;;;;;;;;;6.80;6.40;;;;;3.72;76.01;98788.22;5091451;28;8837;-60
2023/03/06 08:03:04;;;;;;;;;8.80;8.80;;;;;3.72;75.99;98788.22;5091328;28;8868;-59
2023/03/06 08:05:32;;;;;;;;;6.80;6.00;;;;;3.72;76.02;98789.09;5092041;28;8952;-61
2023/03/06 08:08:00;;;;;;;;;12.20;10.40;;;;;3.73;75.80;98784.69;5091437;28;9566;-61
2023/03/06 08:10:28;;;;;;;;;10.80;7.80;;;;;3.77;76.38;98791.38;5091212;28;8822;-60
2023/03/06 08:12:56;;;;;;;;;7.40;7.40;;;;;3.79;75.57;98794.75;5091316;28;8838;-60
2023/03/06 08:15:24;;;;;;;;;9.00;8.20;;;;;3.84;76.08;98790.00;5091118;28;8981;-59
2023/03/06 08:17:52;;;;;;;;;13.80;12.40;;;;;3.90;76.04;98793.03;5092195;28;8918;-60
2023/03/06 08:20:20;;;;;;;;;12.00;10.00;;;;;4.00;75.62;98783.56;5092232;28;8830;-58
2023/03/06 08:22:48;;;;;;;;;11.40;10.40;;;;;4.09;75.50;98787.28;5090956;28;9601;-59
2023/03/06 08:25:16;;;;;;;;;18.20;13.00;;;;;4.17;75.23;98772.63;5093388;28;8826;-58
2023/03/06 08:27:45;;;;;;;;;8.80;7.00;;;;;4.21;74.58;98781.16;5094711;28;8834;-57
2023/03/06 08:30:13;;;;;;;;;9.60;9.20;;;;;4.26;75.19;98784.31;5095651;28;9199;-58
2023/03/06 08:32:41;;;;;;;;;6.00;5.60;;;;;4.29;74.35;98778.81;5093515;28;8857;-60
2023/03/06 08:35:09;;;;;;;;;8.60;8.60;;;;;4.30;74.65;98789.25;5095116;28;8838;-60
2023/03/06 08:37:37;;;;;;;;;8.60;7.60;;;;;4.29;74.43;98784.06;5094878;28;9117;-60
2023/03/06 08:40:05;;;;;;;;;12.00;11.60;;;;;4.29;75.00;98781.44;5095615;28;8852;-59
2023/03/06 08:42:33;;;;;;;;;11.20;10.00;;;;;4.28;74.58;98785.03;5096490;28;8884;-59
2023/03/06 08:45:01;;;;;;;;;13.60;11.60;;;;;4.23;74.77;98773.97;5095836;28;8834;-58
2023/03/06 08:47:29;;;;;;;;;9.80;8.60;;;;;4.20;75.17;98785.56;5095004;28;8833;-58
2023/03/06 08:49:57;;;;;;;;;12.00;11.20;;;;;4.19;74.82;98786.53;5094845;28;8927;-59
2023/03/06 08:52:27;;;;;;;;;13.00;10.80;;;;;4.17;74.91;98787.59;5094471;28;8822;-59
2023/03/06 08:54:56;;;;;;;;;10.00;9.80;;;;;4.20;75.21;98776.84;5095110;28;8833;-58
2023/03/06 08:57:24;;;;;;;;;7.00;7.00;;;;;4.23;75.15;98793.28;5094594;28;8837;-59
2023/03/06 08:59:52;;;;;;;;;10.00;9.40;;;;;4.23;74.74;98781.88;5094454;28;9537;-59
2023/03/06 09:02:20;;;;;;;;;9.80;9.80;;;;;4.20;75.22;98792.66;5093889;28;9007;-58
2023/03/06 09:04:48;;;;;;;;;12.80;12.00;;;;;4.14;75.35;98786.03;5092418;28;8840;-59
2023/03/06 09:07:16;;;;;;;;;10.40;9.00;;;;;4.11;75.32;98791.50;5093048;28;8837;-58
2023/03/06 09:09:43;;;;;;;;;6.40;5.80;;;;;4.15;75.41;98786.84;5092519;28;8867;-60
2023/03/06 09:12:11;;;;;;;;;10.80;7.40;;;;;4.20;74.65;98792.66;5092150;28;8847;-58
2023/03/06 09:14:39;;;;;;;;;9.40;9.40;;;;;4.22;74.35;98788.09;5093532;28;9254;-60
2023/03/06 09:17:07;;;;;;;;;14.20;13.40;;;;;4.23;75.26;98780.09;5092797;28;8863;-59
2023/03/06 09:19:35;;;;;;;;;11.80;10.20;;;;;4.24;74.72;98776.50;5094847;28;8903;-61
2023/03/06 09:22:03;;;;;;;;;14.40;10.20;;;;;4.29;74.68;98782.28;5092966;28;8967;-61
2023/03/06 09:24:31;;;;;;;;;9.80;9.20;;;;;4.31;74.75;98777.75;5093277;28;8845;-60
2023/03/06 09:26:59;;;;;;;;;8.60;7.80;;;;;4.28;74.82;98785.84;5093293;28;8837;-58
2023/03/06 09:29:27;;;;;;;;;11.80;9.20;;;;;4.25;75.19;98772.09;5093305;28;8865;-59
2023/03/06 09:31:55;;;;;;;;;13.40;12.60;;;;;4.27;74.67;98783.34;5092865;28;8902;-58
2023/03/06 09:34:23;;;;;;;;;6.80;5.40;;;;;4.41;74.56;98777.91;5093020;28;8883;-58
2023/03/06 09:36:51;;;;;;;;;7.40;7.40;;;;;4.66;74.05;98785.69;5090753;28;8918;-59
2023/03/06 09:39:24;;;;;;;;;10.40;9.80;;;;;4.75;74.02;98771.81;5090020;28;8917;-58
2023/03/06 09:41:51;;;;;;;;;8.80;6.80;;;;;4.80;74.45;98772.31;5089399;28;8861;-60
2023/03/06 09:44:20;;;;;;;;;6.40;6.00;;;;;4.87;74.28;98773.53;5088136;28;9486;-58
2023/03/06 09:46:48;;;;;;;;;14.20;11.40;;;;;4.89;73.65;98771.63;5087535;28;8973;-59
2023/03/06 09:49:16;;;;;;;;;7.00;6.60;;;;;4.78;73.66;98779.50;5088952;28;8848;-58
2023/03/06 09:51:43;;;;;;;;;8.80;8.20;;;;;4.66;74.26;98783.06;5088719;28;9226;-60
2023/03/06 09:54:11;;;;;;;;;8.20;8.00;;;;;4.58;74.22;98777.50;5088267;28;8844;-59
2023/03/06 09:56:39;;;;;;;;;9.60;9.60;;;;;4.48;74.76;98779.97;5090154;28;9558;-58
2023/03/06 09:59:07;;;;;;;;;7.00;6.20;;;;;4.40;74.62;98774.44;5091405;28;8838;-58
2023/03/06 10:01:35;;;;;;;;;7.40;7.40;;;;;4.36;75.02;98777.41;5091714;28;8972;-58
2023/03/06 10:04:03;;;;;;;;;6.00;6.00;;;;;4.29;75.00;98773.53;5091091;28;8842;-60
2023/03/06 10:06:31;;;;;;;;;11.60;10.60;;;;;4.26;75.16;98781.69;5092373;28;9532;-59
2023/03/06 10:08:59;;;;;;;;;7.00;6.60;;;;;4.25;74.84;98780.00;5093077;28;8838;-58
2023/03/06 10:11:27;;;;;;;;;12.00;11.20;;;;;4.24;75.43;98791.47;5093026;28;8887;-58
2023/03/06 10:13:55;;;;;;;;;6.00;6.00;;;;;4.21;75.71;98787.28;5093041;28;8849;-57
2023/03/06 10:16:23;;;;;;;;;9.80;7.00;;;;;4.15;75.78;98777.19;5093083;28;8914;-58
2023/03/06 10:18:51;;;;;;;;;6.20;6.20;;;;;4.13;75.45;98784.31;5093105;28;8825;-58
2023/03/06 10:21:20;;;;;;;;;9.00;6.80;;;;;4.19;75.10;98789.16;5094051;28;8833;-58
2023/03/06 10:23:47;;;;;;;;;12.00;9.00;;;;;4.20;75.57;98788.19;5093303;28;8849;-58
2023/03/06 10:26:15;;;;;;;;;8.20;7.60;;;;;4.18;75.52;98782.22;5093515;28;8837;-58
2023/03/06 10:28:43;;;;;;;;;7.80;7.40;;;;;4.16;75.44;98792.03;5092798;28;8858;-58
2023/03/06 10:31:11;;;;;;;;;6.60;6.60;;;;;4.15;75.09;98784.22;5093011;28;8826;-58
2023/03/06 10:33:40;;;;;;;;;10.40;8.20;;;;;4.13;75.62;98786.13;5092372;28;8821;-58
2023/03/06 10:36:07;;;;;;;;;8.60;7.80;;;;;4.12;75.72;98792.38;5092169;28;8849;-58
2023/03/06 10:38:37;;;;;;;;;7.00;7.00;;;;;4.12;75.48;98792.38;5091869;28;8830;-58
2023/03/06 10:41:05;;;;;;;;;4.00;4.00;;;;;4.11;75.81;98786.25;5090781;28;8846;-58
2023/03/06 10:43:32;;;;;;;;;10.00;9.00;;;;;4.12;75.85;98787.91;5090062;28;8948;-59
2023/03/06 10:46:03;;;;;;;;;11.20;9.80;;;;;4.11;75.16;98790.69;5089546;28;8922;-59
2023/03/06 10:48:34;;;;;;;;;9.00;8.20;;;;;4.12;75.82;98781.81;5089808;28;8830;-58
2023/03/06 10:51:02;;;;;;;;;7.00;6.80;;;;;4.14;75.83;98779.91;5088146;28;8850;-58
2023/03/06 10:53:43;;;;;;;;;3.80;3.80;;;;;4.21;75.62;98786.41;5089891;28;9529;-59
2023/03/06 10:56:11;;;;;;;;;8.60;6.40;;;;;4.24;75.00;98792.31;5092292;28;9504;-58
2023/03/06 10:58:39;;;;;;;;;9.80;9.20;;;;;4.25;75.46;98786.09;5093011;28;8857;-59
2023/03/06 11:01:07;;;;;;;;;6.40;4.40;;;;;4.28;75.05;98792.94;5092600;28;8832;-58
2023/03/06 11:03:34;;;;;;;;;11.60;10.00;;;;;4.26;75.52;98789.56;5092820;28;8853;-58
2023/03/06 11:06:02;;;;;;;;;13.40;13.40;;;;;4.26;75.30;98789.56;5092379;28;8965;-58
2023/03/06 11:08:31;;;;;;;;;4.00;4.00;;;;;4.31;75.31;98788.28;5092492;28;8840;-58
2023/03/06 11:10:59;;;;;;;;;9.80;9.60;;;;;4.41;74.98;98791.09;5092895;28;8872;-58
2023/03/06 11:13:27;;;;;;;;;9.00;4.40;;;;;4.53;74.70;98792.81;5091748;28;8833;-58
2023/03/06 11:15:55;;;;;;;;;13.40;13.00;;;;;4.67;74.87;98784.72;5090794;28;8883;-58
2023/03/06 11:18:23;;;;;;;;;14.80;11.80;;;;;4.79;74.35;98789.91;5091277;28;8864;-58
2023/03/06 11:20:51;;;;;;;;;10.80;9.80;;;;;4.93;74.52;98784.47;5091013;28;9150;-58
2023/03/06 11:23:19;;;;;;;;;13.00;11.60;;;;;5.14;73.96;98780.19;5090960;28;8837;-60
2023/03/06 11:25:49;;;;;;;;;9.40;9.40;;;;;5.38;73.78;98788.03;5089496;28;8836;-59
2023/03/06 11:28:16;;;;;;;;;20.80;18.20;;;;;5.68;72.70;98788.31;5089055;28;8950;-59
2023/03/06 11:30:44;;;;;;;;;10.80;9.40;;;;;6.38;71.57;98779.91;5090416;28;8875;-66
2023/03/06 11:33:13;;;;;;;;;14.60;14.20;;;;;6.93;70.17;98763.00;5089861;28;8845;-59
2023/03/06 11:35:41;;;;;;;;;12.60;12.00;;;;;7.26;69.44;98765.44;5089873;28;8840;-61
2023/03/06 11:38:08;;;;;;;;;24.40;18.60;;;;;7.52;69.29;98758.75;5090649;28;8848;-61
2023/03/06 11:40:36;;;;;;;;;19.00;14.40;;;;;7.80;68.88;98756.22;5091265;28;9526;-59
2023/03/06 11:43:04;;;;;;;;;17.80;15.20;;;;;7.81;68.80;98756.09;5091551;28;8829;-60
2023/03/06 11:45:33;;;;;;;;;16.00;14.40;;;;;8.29;67.86;98754.44;5090191;28;8840;-60